Flight Track Log - Related Links

Times and Time Zones

All times are in EDT time to prevent confusion due to time zone crossing. See the SVA237 flight status page for this flight to view local times or setup timezone preferences in your user account.

Time Position Orientation Groundspeed Altitude Reporting Facility
EDT Latitude Longitude Course Direction KTS MPH feet Rate Location/Type
Wed 05:02:24 AM 34.0730 25.0650 314° West 460 529 34,000  Level FlightAware ADS-B
Wed 05:02:58 AM 34.1270 25.0020 316° Northwest 461 531 34,000  Level FlightAware ADS-B
Wed 05:03:29 AM 34.1720 24.9490 316° Northwest 461 531 34,000  Level FlightAware ADS-B
Wed 05:04:13 AM 34.2420 24.8660 316° Northwest 460 529 34,000  Level FlightAware ADS-B
Wed 05:04:49 AM 34.2960 24.8030 316° Northwest 460 529 34,000  Level FlightAware ADS-B
Wed 05:05:23 AM 34.3500 24.7390 316° Northwest 460 529 34,000  Level FlightAware ADS-B
Wed 05:05:59 AM 34.4060 24.6720 315° West 460 529 34,000  Level FlightAware ADS-B
Wed 05:06:33 AM 34.4590 24.6100 316° Northwest 459 528 34,000  Level FlightAware ADS-B
Wed 05:07:13 AM 34.5180 24.5390 315° West 459 528 34,000  Level FlightAware ADS-B
Wed 05:07:43 AM 34.5670 24.4810 316° Northwest 459 528 34,000  Level FlightAware ADS-B
Wed 05:08:19 AM 34.6200 24.4170 315° West 460 529 34,000  Level FlightAware ADS-B
Wed 05:08:58 AM 34.6800 24.3450 315° West 461 531 34,000  Level FlightAware ADS-B
Wed 05:09:28 AM 34.7290 24.2870 316° Northwest 461 531 34,000  Level FlightAware ADS-B
Wed 05:10:03 AM 34.7810 24.2240 315° West 461 531 34,000  Level FlightAware ADS-B
Wed 05:10:41 AM 34.8340 24.1600 315° West 460 529 34,000  Level FlightAware ADS-B
Wed 05:11:18 AM 34.8940 24.0880 315° West 458 527 34,000  Level FlightAware ADS-B
Wed 05:11:49 AM 34.9410 24.0310 315° West 458 527 34,000  Level FlightAware ADS-B
Wed 05:12:23 AM 34.9950 23.9650 315° West 460 529 34,000  Level FlightAware ADS-B
Wed 05:12:59 AM 35.0480 23.9020 316° Northwest 461 531 34,000  Level FlightAware ADS-B
Wed 05:13:35 AM 35.1070 23.8300 315° West 469 540 34,000  Level FlightAware ADS-B
Wed 05:14:12 AM 35.1620 23.7630 315° West 469 540 34,000  Level FlightAware ADS-B
Wed 05:14:43 AM 35.2100 23.7000 313° West 463 533 34,000  Level FlightAware ADS-B
Wed 05:15:19 AM 35.2560 23.6250 307° West 454 522 34,000  Level FlightAware ADS-B
Wed 05:15:55 AM 35.2940 23.5470 301° West 453 521 34,000  Level FlightAware ADS-B
Wed 05:16:31 AM 35.3330 23.4700 302° West 453 521 34,000 88 Level FlightAware ADS-B
Wed 05:17:03 AM 35.3690 23.3970 301° West 451 519 34,100  Climbing FlightAware ADS-B
Wed 05:17:39 AM 35.4080 23.3170 301° West 450 518 34,000 -81 Descending FlightAware ADS-B
Wed 05:18:17 AM 35.4470 23.2380 301° West 450 518 34,000  Level FlightAware ADS-B
Wed 05:18:49 AM 35.4820 23.1670 301° West 452 520 34,000  Level FlightAware ADS-B
Wed 05:19:26 AM 35.5220 23.0850 301° West 453 521 34,000  Level FlightAware ADS-B
Wed 05:20:03 AM 35.5620 23.0020 301° West 452 520 34,000  Level FlightAware ADS-B
Wed 05:20:31 AM 35.5920 22.9410 301° West 451 519 34,000  Level FlightAware ADS-B
Wed 05:21:11 AM 35.6350 22.8530 301° West 450 518 34,000  Level FlightAware ADS-B
Wed 05:21:45 AM 35.6700 22.7800 301° West 449 517 34,000  Level FlightAware ADS-B
Wed 05:22:18 AM 35.7050 22.7090 301° West 449 517 34,000  Level FlightAware ADS-B
Wed 05:23:11 AM 35.7620 22.5900 301° West 446 513 34,000  Level FlightAware ADS-B
Wed 05:23:43 AM 35.7950 22.5200 300° West 446 513 34,000  Level FlightAware ADS-B
Wed 05:24:19 AM 35.8330 22.4410 301° West 446 513 34,000  Level FlightAware ADS-B
Wed 05:24:55 AM 35.8710 22.3620 301° West 446 513 34,000  Level FlightAware ADS-B
Wed 05:25:37 AM 35.9080 22.2830 300° West 446 513 34,000  Level FlightAware ADS-B
Wed 05:26:13 AM 35.9400 22.2150 300° West 446 513 34,000  Level FlightAware ADS-B
Wed 05:26:50 AM 35.9720 22.1460 300° West 446 513 34,000  Level FlightAware ADS-B
Wed 05:27:26 AM 36.0040 22.0780 300° West 446 513 34,000  Level FlightAware ADS-B
Wed 05:28:03 AM 36.0360 22.0090 300° West 446 513 34,000  Level FlightAware ADS-B
Wed 05:28:39 AM 36.0680 21.9410 300° West 446 513 34,000  Level FlightAware ADS-B
Wed 05:29:15 AM 36.1000 21.8740 301° West 446 513 34,000 785 Level FlightAware ADS-B
Wed 05:29:50 AM 36.1800 21.7100 301° West 34,400 1,183 Climbing FlightAware ADS-B
Wed 05:30:26 AM 36.2170 21.6310 300° West 435 501 35,400 870 Climbing FlightAware ADS-B
Wed 05:30:59 AM 36.2440 21.5720 300° West 435 501 35,400  Level FlightAware ADS-B
Wed 05:31:35 AM 36.2730 21.5050 298° West 435 501 35,400  Level FlightAware ADS-B
Wed 05:32:11 AM 36.3030 21.4380 299° West 435 501 35,400  Level FlightAware ADS-B
Wed 05:32:47 AM 36.3330 21.3710 299° West 435 501 35,400  Level FlightAware ADS-B
Wed 05:33:23 AM 36.3630 21.3050 299° West 435 501 35,400  Level FlightAware ADS-B
Wed 05:33:59 AM 36.3930 21.2380 299° West 435 501 35,400  Level FlightAware ADS-B
Wed 05:34:36 AM 36.4240 21.1690 299° West 435 501 35,400  Level FlightAware ADS-B
Wed 05:35:12 AM 36.4530 21.1020 298° West 435 501 35,400  Level FlightAware ADS-B
Wed 05:35:49 AM 36.4840 21.0330 299° West 435 501 35,400  Level FlightAware ADS-B
Wed 05:36:25 AM 36.5140 20.9660 299° West 435 501 35,400  Level FlightAware ADS-B
Wed 05:37:01 AM 36.5440 20.8990 299° West 435 501 35,400  Level FlightAware ADS-B
Wed 05:37:37 AM 36.5740 20.8320 299° West 435 501 35,400  Level FlightAware ADS-B
Wed 05:38:13 AM 36.6040 20.7650 299° West 435 501 35,400  Level FlightAware ADS-B
Wed 05:38:49 AM 36.6330 20.6980 298° West 435 501 35,400  Level FlightAware ADS-B
Wed 05:39:26 AM 36.6640 20.6290 299° West 435 501 35,400  Level FlightAware ADS-B
Wed 05:40:02 AM 36.6940 20.5620 299° West 435 501 35,400 85 Level FlightAware ADS-B
Wed 05:42:00 AM 37.0217 20.1651 316° Northwest  Level Estimated
Wed 05:43:00 AM 37.1878 19.9620 316° Northwest  Level Estimated
Wed 05:44:00 AM 37.3535 19.7581 316° Northwest  Level Estimated
Wed 05:45:00 AM 37.5189 19.5532 316° Northwest  Level Estimated
Wed 05:46:00 AM 37.6840 19.3474 315° West  Level Estimated
Wed 05:46:31 AM 37.1610 19.5480 315° West 426 490 36,000  Level FlightAware ADS-B
Wed 05:47:14 AM 37.1980 19.4640 299° West 426 490 36,000  Level FlightAware ADS-B
Wed 05:47:51 AM 37.2270 19.3950 298° West 426 490 36,000  Level FlightAware ADS-B
Wed 05:48:27 AM 37.2550 19.3290 298° West 426 490 36,000  Level FlightAware ADS-B
Wed 05:49:23 AM 37.3220 19.1790 299° West 431 496 36,000  Level FlightAware ADS-B
Wed 05:49:58 AM 37.3600 19.0940 299° West 435 501 36,000  Level FlightAware ADS-B
Wed 05:50:34 AM 37.3940 19.0140 298° West 438 504 36,000 91 Level FlightAware ADS-B
Wed 05:51:04 AM 37.4270 18.9500 303° West 443 510 36,100  Climbing FlightAware ADS-B
Wed 05:51:42 AM 37.4700 18.8700 304° West 442 509 36,000 -81 Descending FlightAware ADS-B
Wed 05:52:18 AM 37.5080 18.7980 304° West 442 509 36,000 81 Level FlightAware ADS-B
Wed 05:52:56 AM 37.5550 18.7100 304° West 441 507 36,100 70 Climbing FlightAware ADS-B
Wed 05:53:44 AM 37.6050 18.6140 303° West 439 505 36,100 -67 Level FlightAware ADS-B
Wed 05:54:25 AM 37.6510 18.5280 304° West 438 504 36,000 -78 Descending FlightAware ADS-B
Wed 05:55:01 AM 37.6840 18.4630 303° West 438 504 36,000  Level FlightAware ADS-B
Wed 05:55:50 AM 37.7460 18.3470 304° West 432 497 36,000  Level FlightAware ADS-B
Wed 05:56:25 AM 37.7870 18.2700 304° West 430 495 36,000  Level FlightAware ADS-B
Wed 05:57:01 AM 37.8280 18.1920 304° West 428 493 36,000  Level FlightAware ADS-B
Wed 05:57:33 AM 37.8630 18.1270 304° West 428 493 36,000  Level FlightAware ADS-B
Wed 05:58:09 AM 37.9030 18.0490 303° West 428 493 36,000  Level FlightAware ADS-B
Wed 05:58:45 AM 37.9410 17.9750 303° West 426 490 36,000  Level FlightAware ADS-B
Wed 05:59:21 AM 37.9810 17.8990 304° West 426 490 36,000  Level FlightAware ADS-B
Wed 05:59:53 AM 38.0150 17.8330 303° West 427 491 36,000  Level FlightAware ADS-B
Wed 06:00:31 AM 38.0560 17.7540 303° West 427 491 36,000  Level FlightAware ADS-B
Wed 06:01:03 AM 38.0910 17.6860 303° West 428 493 36,000  Level FlightAware ADS-B
Wed 06:01:37 AM 38.1280 17.6140 303° West 427 491 36,000 85 Level FlightAware ADS-B
Wed 06:02:14 AM 38.1680 17.5380 304° West 426 490 36,100  Climbing FlightAware ADS-B
Wed 06:02:49 AM 38.2060 17.4630 303° West 423 487 36,000 -85 Descending FlightAware ADS-B
Wed 06:03:25 AM 38.2450 17.3870 303° West 422 486 36,000  Level FlightAware ADS-B
Wed 06:03:57 AM 38.2790 17.3200 303° West 421 484 36,000  Level FlightAware ADS-B
Wed 06:04:33 AM 38.3160 17.2470 303° West 420 483 36,000  Level FlightAware ADS-B
Wed 06:05:09 AM 38.3550 17.1710 303° West 417 480 36,000  Level FlightAware ADS-B
Wed 06:05:45 AM 38.3920 17.0980 303° West 415 478 36,000  Level FlightAware ADS-B
Wed 06:06:21 AM 38.4290 17.0240 303° West 414 476 36,000  Level FlightAware ADS-B
Wed 06:06:53 AM 38.4630 16.9580 303° West 415 478 36,000  Level FlightAware ADS-B
Wed 06:07:29 AM 38.5000 16.8840 303° West 419 482 36,000  Level FlightAware ADS-B
Wed 06:08:05 AM 38.5380 16.8080 303° West 423 487 36,000  Level FlightAware ADS-B
Wed 06:08:37 AM 38.5720 16.7400 303° West 426 490 36,000  Level FlightAware ADS-B
Wed 06:09:15 AM 38.6110 16.6630 303° West 428 493 36,000  Level FlightAware ADS-B
Wed 06:09:51 AM 38.6510 16.5820 302° West 431 496 36,000  Level FlightAware ADS-B
Wed 06:10:27 AM 38.6890 16.5040 302° West 433 498 36,000  Level FlightAware ADS-B
Wed 06:11:01 AM 38.7250 16.4320 303° West 435 501 36,000  Level FlightAware ADS-B
Wed 06:11:37 AM 38.7680 16.3530 305° West 437 503 36,000  Level FlightAware ADS-B
Wed 06:12:08 AM 38.8060 16.2950 310° West 438 504 36,000  Level FlightAware ADS-B
Wed 06:12:45 AM 38.8560 16.2190 310° West 440 506 36,000  Level FlightAware ADS-B
Wed 06:13:19 AM 38.9010 16.1510 310° West 440 506 36,000  Level FlightAware ADS-B
Wed 06:13:55 AM 38.9500 16.0780 311° West 441 507 36,000  Level FlightAware ADS-B
Wed 06:14:31 AM 38.9950 16.0080 310° West 442 509 36,000  Level FlightAware ADS-B
Wed 06:15:07 AM 39.0430 15.9360 311° West 442 509 36,000  Level FlightAware ADS-B
Wed 06:15:39 AM 39.0860 15.8700 310° West 441 507 36,000  Level FlightAware ADS-B
Wed 06:16:15 AM 39.1320 15.8000 310° West 441 507 36,000  Level FlightAware ADS-B
Wed 06:16:51 AM 39.1800 15.7260 310° West 441 507 36,000  Level FlightAware ADS-B
Wed 06:17:27 AM 39.2270 15.6550 311° West 440 506 36,000  Level FlightAware ADS-B
Wed 06:17:59 AM 39.2700 15.5890 310° West 440 506 36,000  Level FlightAware ADS-B
Wed 06:18:35 AM 39.3170 15.5170 310° West 440 506 36,000  Level FlightAware ADS-B
Wed 06:19:11 AM 39.3640 15.4440 310° West 440 506 36,000  Level FlightAware ADS-B
Wed 06:19:41 AM 39.4010 15.3860 310° West 439 505 36,000  Level FlightAware ADS-B
Wed 06:20:17 AM 39.4500 15.3110 310° West 438 504 36,000  Level FlightAware ADS-B
Wed 06:20:55 AM 39.4990 15.2350 310° West 440 506 36,000  Level FlightAware ADS-B
Wed 06:21:31 AM 39.5440 15.1650 310° West 441 507 36,000  Level FlightAware ADS-B
Wed 06:22:03 AM 39.5880 15.0970 310° West 442 509 36,000  Level FlightAware ADS-B
Wed 06:22:35 AM 39.6280 15.0340 310° West 442 509 36,000 82 Level FlightAware ADS-B
Wed 06:23:16 AM 39.6830 14.9480 310° West 441 507 36,100  Climbing FlightAware ADS-B
Wed 06:23:48 AM 39.7240 14.8830 309° West 440 506 36,000 -92 Descending FlightAware ADS-B
Wed 06:24:21 AM 39.7680 14.8150 310° West 439 505 36,000  Level FlightAware ADS-B
Wed 06:25:01 AM 39.8200 14.7330 310° West 437 503 36,000  Level FlightAware ADS-B
Wed 06:25:36 AM 39.8630 14.6640 309° West 436 502 36,000  Level FlightAware ADS-B
Wed 06:26:09 AM 39.9040 14.5990 309° West 435 501 36,000  Level FlightAware ADS-B
Wed 06:26:45 AM 39.9510 14.5240 309° West 435 501 36,000  Level FlightAware ADS-B
Wed 06:27:17 AM 39.9920 14.4590 309° West 433 498 36,000  Level FlightAware ADS-B
Wed 06:27:56 AM 40.0420 14.3800 310° West 430 495 36,000  Level FlightAware ADS-B
Wed 06:28:26 AM 40.0780 14.3220 309° West 427 491 36,000  Level FlightAware ADS-B
Wed 06:29:05 AM 40.1280 14.2440 310° West 423 487 36,000  Level FlightAware ADS-B
Wed 06:29:38 AM 40.1740 14.1810 314° West 421 484 36,000  Level FlightAware ADS-B
Wed 06:30:14 AM 40.2220 14.1130 313° West 421 484 36,000  Level FlightAware ADS-B
Wed 06:30:51 AM 40.2710 14.0460 314° West 423 487 36,000  Level FlightAware ADS-B
Wed 06:31:27 AM 40.3200 13.9770 313° West 423 487 36,000  Level FlightAware ADS-B
Wed 06:31:59 AM 40.3620 13.9180 313° West 425 489 36,000  Level FlightAware ADS-B
Wed 06:32:35 AM 40.4100 13.8510 313° West 424 488 36,000 83 Level FlightAware ADS-B
Wed 06:33:11 AM 40.4580 13.7830 313° West 425 489 36,100 441 Climbing FlightAware ADS-B
Wed 06:33:43 AM 40.5030 13.7200 313° West 427 491 36,500 618 Climbing FlightAware ADS-B
Wed 06:34:19 AM 40.5510 13.6520 313° West 430 495 36,800 514 Climbing FlightAware ADS-B
Wed 06:34:53 AM 40.5970 13.5870 313° West 433 498 37,100 455 Climbing FlightAware ADS-B
Wed 06:35:25 AM 40.6400 13.5260 313° West 438 504 37,300 649 Climbing FlightAware ADS-B
Wed 06:36:07 AM 40.6970 13.4440 313° West 431 496 37,900 575 Climbing FlightAware ADS-B
Wed 06:36:38 AM 40.7380 13.3850 313° West 436 502 38,000 90 Climbing FlightAware ADS-B
Wed 06:37:14 AM 40.7900 13.3120 313° West 439 505 38,000  Level FlightAware ADS-B
Wed 06:37:48 AM 40.8350 13.2470 312° West 438 504 38,000  Level FlightAware ADS-B
Wed 06:38:24 AM 40.8850 13.1750 313° West 442 509 38,000  Level FlightAware ADS-B
Wed 06:38:56 AM 40.9280 13.1130 313° West 440 506 38,000  Level FlightAware ADS-B
Wed 06:39:43 AM 40.9910 13.0220 313° West 437 503 38,000  Level FlightAware ADS-B
Wed 06:40:15 AM 41.0390 12.9540 313° West 435 501 38,000  Level FlightAware ADS-B
Wed 06:40:52 AM 41.0890 12.8820 313° West 435 501 38,000  Level FlightAware ADS-B
Wed 06:41:27 AM 41.1350 12.8130 312° West 435 501 38,000  Level FlightAware ADS-B
Wed 06:42:00 AM 41.1790 12.7500 313° West 436 502 38,000  Level FlightAware ADS-B
Wed 06:42:34 AM 41.2270 12.6800 312° West 434 499 38,000  Level FlightAware ADS-B
Wed 06:43:12 AM 41.2770 12.6060 312° West 432 497 38,000  Level FlightAware ADS-B
Wed 06:43:48 AM 41.3250 12.5370 313° West 430 495 38,000  Level FlightAware ADS-B
Wed 06:44:23 AM 41.3700 12.4700 312° West 429 494 38,000  Level FlightAware ADS-B
Wed 06:44:57 AM 41.4170 12.4000 312° West 428 493 38,000  Level FlightAware ADS-B
Wed 06:45:32 AM 41.4640 12.3310 312° West 427 491 38,000  Level FlightAware ADS-B
Wed 06:46:06 AM 41.5100 12.2640 313° West 427 491 38,000  Level FlightAware ADS-B
Wed 06:46:41 AM 41.5550 12.1970 312° West 427 491 38,000  Level FlightAware ADS-B
Wed 06:47:18 AM 41.6050 12.1230 312° West 428 493 38,000  Level FlightAware ADS-B
Wed 06:47:50 AM 41.6460 12.0610 312° West 427 491 38,000  Level FlightAware ADS-B
Wed 06:48:26 AM 41.6940 11.9900 312° West 427 491 38,000  Level FlightAware ADS-B
Wed 06:49:02 AM 41.7410 11.9180 311° West 426 490 38,000  Level FlightAware ADS-B
Wed 06:49:35 AM 41.7840 11.8550 312° West 427 491 38,000  Level FlightAware ADS-B
Wed 06:50:08 AM 41.8290 11.7870 312° West 430 495 38,000  Level FlightAware ADS-B
Wed 06:50:46 AM 41.8790 11.7120 312° West 433 498 38,000 80 Level FlightAware ADS-B
Wed 06:51:23 AM 41.9270 11.6390 311° West 433 498 38,100 83 Climbing FlightAware ADS-B
Wed 06:51:58 AM 41.9760 11.5650 312° West 432 497 38,100 -90 Level FlightAware ADS-B
Wed 06:52:30 AM 42.0180 11.5010 311° West 431 496 38,000 -87 Descending FlightAware ADS-B
Wed 06:53:07 AM 42.0650 11.4280 311° West 430 495 38,000  Level FlightAware ADS-B
Wed 06:53:43 AM 42.1130 11.3550 312° West 427 491 38,000  Level FlightAware ADS-B
Wed 06:54:19 AM 42.1600 11.2830 311° West 424 488 38,000  Level FlightAware ADS-B
Wed 06:54:51 AM 42.2040 11.2260 316° Northwest 415 478 38,000  Level FlightAware ADS-B
Wed 06:55:27 AM 42.2600 11.1720 324° Northwest 409 471 38,000  Level FlightAware ADS-B
Wed 06:56:03 AM 42.3160 11.1200 326° Northwest 409 471 38,000  Level FlightAware ADS-B
Wed 06:56:39 AM 42.3720 11.0680 326° Northwest 409 471 38,000  Level FlightAware ADS-B
Wed 06:57:10 AM 42.4200 11.0230 325° Northwest 406 467 38,000  Level FlightAware ADS-B
Wed 06:57:47 AM 42.4760 10.9710 326° Northwest 402 463 38,000  Level FlightAware ADS-B
Wed 06:58:22 AM 42.5300 10.9200 325° Northwest 398 458 38,000  Level FlightAware ADS-B
Wed 06:58:54 AM 42.5790 10.8750 326° Northwest 395 455 38,000  Level FlightAware ADS-B
Wed 06:59:31 AM 42.6340 10.8240 326° Northwest 395 455 38,000  Level FlightAware ADS-B
Wed 07:00:08 AM 42.6910 10.7700 325° Northwest 398 458 38,000  Level FlightAware ADS-B
Wed 07:00:40 AM 42.7390 10.7250 325° Northwest 400 460 38,000  Level FlightAware ADS-B
Wed 07:01:17 AM 42.7950 10.6720 325° Northwest 402 463 38,000 83 Level FlightAware ADS-B
Wed 07:01:52 AM 42.8490 10.6210 325° Northwest 404 465 38,100 85 Climbing FlightAware ADS-B
Wed 07:02:28 AM 42.9030 10.5690 325° Northwest 403 464 38,100 -88 Level FlightAware ADS-B
Wed 07:03:00 AM 42.9530 10.5220 325° Northwest 403 464 38,000 -87 Descending FlightAware ADS-B
Wed 07:03:37 AM 43.0100 10.4680 325° Northwest 402 463 38,000  Level FlightAware ADS-B
Wed 07:04:13 AM 43.0650 10.4160 325° Northwest 400 460 38,000  Level FlightAware ADS-B
Wed 07:04:45 AM 43.1140 10.3690 325° Northwest 397 457 38,000  Level FlightAware ADS-B
Wed 07:05:23 AM 43.1680 10.3170 325° Northwest 397 457 38,000  Level FlightAware ADS-B
Wed 07:05:55 AM 43.2180 10.2690 325° Northwest 397 457 38,000  Level FlightAware ADS-B
Wed 07:06:31 AM 43.2730 10.2170 325° Northwest 398 458 38,000  Level FlightAware ADS-B
Wed 07:07:03 AM 43.3210 10.1700 325° Northwest 398 458 38,000  Level FlightAware ADS-B
Wed 07:07:43 AM 43.3780 10.1160 325° Northwest 398 458 38,000  Level FlightAware ADS-B
Wed 07:08:15 AM 43.4300 10.0650 325° Northwest 401 461 38,000  Level FlightAware ADS-B
Wed 07:08:51 AM 43.4860 10.0110 325° Northwest 403 464 38,000  Level FlightAware ADS-B
Wed 07:09:27 AM 43.5390 9.9590 325° Northwest 403 464 38,000  Level FlightAware ADS-B
Wed 07:10:01 AM 43.5910 9.9090 325° Northwest 404 465 38,000  Level FlightAware ADS-B
Wed 07:10:36 AM 43.6440 9.8570 325° Northwest 405 466 38,000  Level FlightAware ADS-B
Wed 07:11:11 AM 43.6990 9.8030 325° Northwest 406 467 38,000  Level FlightAware ADS-B
Wed 07:11:49 AM 43.7570 9.7470 325° Northwest 407 468 38,000  Level FlightAware ADS-B
Wed 07:12:19 AM 43.8010 9.7030 324° Northwest 405 466 38,000  Level FlightAware ADS-B
Wed 07:12:56 AM 43.8600 9.6460 325° Northwest 405 466 38,000  Level FlightAware ADS-B
Wed 07:13:33 AM 43.9160 9.5900 324° Northwest 405 466 38,000  Level FlightAware ADS-B
Wed 07:14:05 AM 43.9650 9.5410 324° Northwest 405 466 38,000 -474 Level FlightAware ADS-B
Wed 07:14:49 AM 44.0330 9.4740 325° Northwest 404 465 37,400 -900 Descending FlightAware ADS-B
Wed 07:15:25 AM 44.0850 9.4230 325° Northwest 407 468 36,800 -1,014 Descending FlightAware ADS-B
Wed 07:16:00 AM 44.1420 9.3660 324° Northwest 410 472 36,200 -706 Descending FlightAware ADS-B
Wed 07:16:33 AM 44.1920 9.3160 324° Northwest 413 475 36,000 -169 Descending FlightAware ADS-B
Wed 07:17:11 AM 44.2490 9.2510 321° Northwest 412 474 36,000  Level FlightAware ADS-B
Wed 07:17:43 AM 44.2940 9.1980 320° Northwest 412 474 36,000  Level FlightAware ADS-B
Wed 07:18:19 AM 44.3480 9.1330 319° Northwest 412 474 36,000  Level FlightAware ADS-B
Wed 07:18:55 AM 44.4000 9.0710 320° Northwest 413 475 36,000  Level FlightAware ADS-B
Wed 07:19:25 AM 44.4420 9.0200 319° Northwest 413 475 36,000  Level FlightAware ADS-B
Wed 07:20:03 AM 44.4980 8.9540 320° Northwest 412 474 36,000  Level FlightAware ADS-B
Wed 07:20:39 AM 44.5490 8.8930 320° Northwest 411 473 36,000  Level FlightAware ADS-B
Wed 07:21:11 AM 44.5960 8.8350 319° Northwest 411 473 36,000 -88 Level FlightAware ADS-B
Wed 07:21:47 AM 44.6480 8.7730 320° Northwest 411 473 35,900 -500 Descending FlightAware ADS-B
Wed 07:22:23 AM 44.7000 8.7100 319° Northwest 416 479 35,400 -943 Descending FlightAware ADS-B
Wed 07:22:57 AM 44.7510 8.6480 319° Northwest 423 487 34,800 -1,029 Descending FlightAware ADS-B
Wed 07:23:33 AM 44.8050 8.5830 320° Northwest 423 487 34,200 -1,000 Descending FlightAware ADS-B
Wed 07:24:09 AM 44.8570 8.5190 319° Northwest 427 491 33,600 -917 Descending FlightAware ADS-B
Wed 07:24:45 AM 44.9070 8.4580 319° Northwest 432 497 33,100 -947 Descending FlightAware ADS-B
Wed 07:25:25 AM 44.9730 8.3780 319° Northwest 433 498 32,400 -917 Descending FlightAware ADS-B
Wed 07:25:57 AM 45.0200 8.3200 319° Northwest 435 501 32,000 -833 Descending FlightAware ADS-B
Wed 07:26:37 AM 45.0820 8.2430 319° Northwest 433 498 31,400 -917 Descending FlightAware ADS-B
Wed 07:27:09 AM 45.1290 8.1850 319° Northwest 434 499 30,900 -923 Descending FlightAware ADS-B
Wed 07:27:42 AM 45.1790 8.1230 319° Northwest 430 495 30,400 -1,043 Descending FlightAware ADS-B
Wed 07:28:18 AM 45.2330 8.0560 319° Northwest 430 495 29,700 -986 Descending FlightAware ADS-B
Wed 07:28:55 AM 45.2880 7.9870 319° Northwest 427 491 29,200 -930 Descending FlightAware ADS-B
Wed 07:29:29 AM 45.3390 7.9250 319° Northwest 423 487 28,600 -1,014 Descending FlightAware ADS-B
Wed 07:30:06 AM 45.3860 7.8560 314° West 419 482 28,000 -935 Descending FlightAware ADS-B
Wed 07:30:46 AM 45.4340 7.7650 307° West 418 481 27,400 -923 Descending FlightAware ADS-B
Wed 07:31:24 AM 45.4780 7.6820 307° West 410 472 26,800 -943 Descending FlightAware ADS-B
Wed 07:31:56 AM 45.5150 7.6100 306° West 408 470 26,300 -1,000 Descending FlightAware ADS-B
Wed 07:32:30 AM 45.5530 7.5370 307° West 401 461 25,700 -971 Descending FlightAware ADS-B
Wed 07:33:04 AM 45.5900 7.4660 307° West 401 461 25,200 -1,000 Descending FlightAware ADS-B
Wed 07:33:36 AM 45.6270 7.3960 307° West 402 463 24,600 -1,054 Descending FlightAware ADS-B
Wed 07:34:18 AM 45.6730 7.3070 307° West 395 455 23,900 -923 Descending FlightAware ADS-B
Wed 07:34:54 AM 45.7100 7.2340 306° West 397 457 23,400 -943 Descending FlightAware ADS-B
Wed 07:35:28 AM 45.7490 7.1590 307° West 397 457 22,800 -1,029 Descending FlightAware ADS-B
Wed 07:36:04 AM 45.7870 7.0850 306° West 391 450 22,200 -1,000 Descending FlightAware ADS-B
Wed 07:36:34 AM 45.8190 7.0220 306° West 388 447 21,700 -971 Descending FlightAware ADS-B
Wed 07:37:12 AM 45.8600 6.9420 306° West 386 444 21,100 -1,216 Descending FlightAware ADS-B
Wed 07:37:48 AM 45.8960 6.8710 306° West 382 440 20,200 -1,726 Descending FlightAware ADS-B
Wed 07:38:25 AM 45.9340 6.7970 306° West 376 433 19,000 -2,029 Descending FlightAware ADS-B
Wed 07:38:56 AM 45.9680 6.7300 306° West 371 427 17,900 -1,938 Descending FlightAware ADS-B
Wed 07:39:30 AM 46.0020 6.6630 306° West 368 423 16,900 -1,875 Descending FlightAware ADS-B
Wed 07:40:16 AM 46.0470 6.5730 306° West 365 420 15,400 -1,846 Descending FlightAware ADS-B
Wed 07:40:48 AM 46.0790 6.5080 305° West 363 418 14,500 -1,324 Descending FlightAware ADS-B
Wed 07:41:24 AM 46.1120 6.4360 303° West 356 410 13,900 -1,500 Descending FlightAware ADS-B
Wed 07:42:00 AM 46.1450 6.3650 304° West 343 395 12,700 -1,750 Descending FlightAware ADS-B
Wed 07:42:12 AM 46.1540 6.3440 302° West 330 380 12,500 -1,241 Descending FlightAware ADS-B
Wed 07:42:29 AM 46.1600 6.3090 284° West 318 366 12,100 -2,108 Descending FlightAware ADS-B
Wed 07:42:49 AM 46.1530 6.2690 256° West 317 365 11,200 -2,182 Descending FlightAware ADS-B
Wed 07:43:24 AM 46.1280 6.2070 240° Southwest 299 344 10,100 -1,895 Descending FlightAware ADS-B
Wed 07:43:46 AM 46.1140 6.1710 241° Southwest 296 341 9,400 -2,250 Descending FlightAware ADS-B
Wed 07:44:04 AM 46.1010 6.1370 241° Southwest 293 337 8,600 -2,368 Descending FlightAware ADS-B
Wed 07:44:24 AM 46.0880 6.1050 240° Southwest 290 334 7,900 -1,650 Descending FlightAware ADS-B
Wed 07:44:44 AM 46.0750 6.0710 241° Southwest 268 308 7,500 -1,320 Descending FlightAware ADS-B
Wed 07:45:14 AM 46.0560 6.0240 240° Southwest 267 307 6,800 -960 Descending FlightAware ADS-B
Wed 07:45:34 AM 46.0450 5.9940 242° Southwest 249 287 6,700 -133 Descending FlightAware ADS-B
Wed 07:45:59 AM 46.0310 5.9590 240° Southwest 238 274 6,700 133 Level FlightAware ADS-B
Wed 07:46:19 AM 46.0200 5.9320 240° Southwest 228 262 6,800 150 Climbing FlightAware ADS-B
Wed 07:46:39 AM 46.0100 5.9060 241° Southwest 219 252 6,800 -150 Level FlightAware ADS-B
Wed 07:46:59 AM 46.0010 5.8790 244° Southwest 219 252 6,700 -240 Descending FlightAware ADS-B
Wed 07:47:04 AM 46.0010 5.8720 270° West 220 253 6,700 -960 Level FlightAware ADS-B
Wed 07:47:24 AM 46.0080 5.8460 291° West 208 239 6,300 -1,400 Descending FlightAware ADS-B
Wed 07:47:34 AM 46.0170 5.8380 328° Northwest 200 230 6,000 -1,600 Descending FlightAware ADS-B
Wed 07:47:39 AM 46.0210 5.8360 341° North 197 227 5,900 -1,200 Descending FlightAware ADS-B
Wed 07:47:44 AM 46.0260 5.8350 352° North 194 223 5,800 -387 Descending FlightAware ADS-B
Wed 07:48:10 AM 46.0500 5.8400 North 197 227 5,700 -167 Descending FlightAware ADS-B
Wed 07:48:20 AM 46.0570 5.8470 35° Northeast 197 227 5,700 -600 Level FlightAware ADS-B
Wed 07:48:40 AM 46.0710 5.8650 42° Northeast 193 222 5,400 -750 Descending FlightAware ADS-B
Wed 07:49:00 AM 46.0840 5.8830 44° Northeast 191 220 5,200 -900 Descending FlightAware ADS-B
Wed 07:49:20 AM 46.0960 5.9010 46° Northeast 193 222 4,800 -1,200 Descending FlightAware ADS-B
Wed 07:49:40 AM 46.1090 5.9200 45° Northeast 189 217 4,400 -1,167 Descending FlightAware ADS-B
Wed 07:49:56 AM 46.1190 5.9340 44° Northeast 185 213 4,100 -1,000 Descending FlightAware ADS-B
Wed 07:50:16 AM 46.1310 5.9510 44° Northeast 180 207 3,800 -900 Descending FlightAware ADS-B
Wed 07:50:36 AM 46.1430 5.9690 46° Northeast 178 205 3,500 -900 Descending FlightAware ADS-B
Wed 07:50:56 AM 46.1540 5.9860 47° Northeast 176 203 3,200 -913 Descending FlightAware ADS-B
Wed 07:51:22 AM 46.1680 6.0070 46° Northeast 166 191 2,800 -913 Descending FlightAware ADS-B
Wed 07:51:42 AM 46.1780 6.0210 44° Northeast 153 176 2,500 -750 Descending FlightAware ADS-B
Wed 07:52:02 AM 46.1880 6.0350 44° Northeast 140 161 2,300 -600 Descending FlightAware ADS-B
Wed 07:52:22 AM 46.1970 6.0480 45° Northeast 137 158 2,100 -818 Descending FlightAware ADS-B
Wed 07:52:46 AM 46.2080 6.0650 47° Northeast 135 155 1,700 -818 Descending FlightAware ADS-B
Wed 07:53:06 AM 46.2170 6.0780 45° Northeast 135 155 1,500 -581 Descending FlightAware ADS-B
Wed 07:53:17 AM 46.2210 6.0840 46° Northeast 131 151 1,400 -667 Descending FlightAware ADS-B
Wed 07:53:42 AM 46.2310 6.0990 46° Northeast 131 151 1,100 -720 Descending FlightAware ADS-B

Login

Don't have an account? Register now (free) for customized features, flight alerts, and more!